createdAt,value
2018-11-02T00:00:27.120Z,12.05
2018-11-02T00:02:55.266Z,13.05
2018-11-02T00:05:23.506Z,13.78
2018-11-02T00:07:51.732Z,15.43
2018-11-02T00:10:19.970Z,12.40
2018-11-02T00:12:48.197Z,12.93
2018-11-02T00:15:16.450Z,15.53
2018-11-02T00:17:44.671Z,16.00
2018-11-02T00:20:12.916Z,14.30
2018-11-02T00:22:41.203Z,14.53
2018-11-02T00:25:09.486Z,15.72
2018-11-02T00:27:37.787Z,13.53
2018-11-02T00:30:06.020Z,13.10
2018-11-02T00:32:34.276Z,14.07
2018-11-02T00:35:02.486Z,13.90
2018-11-02T00:37:31.023Z,12.90
2018-11-02T00:39:59.248Z,12.23
2018-11-02T00:42:27.808Z,13.48
2018-11-02T00:44:56.051Z,13.45
2018-11-02T00:47:24.292Z,13.85
2018-11-02T00:49:52.560Z,14.70
2018-11-02T00:52:20.764Z,17.20
2018-11-02T00:54:48.992Z,14.78
2018-11-02T00:57:17.242Z,17.37
2018-11-02T00:59:45.513Z,14.25
2018-11-02T01:02:13.721Z,13.68
2018-11-02T01:04:41.957Z,14.40
2018-11-02T01:07:10.188Z,12.43
2018-11-02T01:09:38.406Z,15.43
2018-11-02T01:12:06.636Z,11.70
2018-11-02T01:14:34.856Z,18.40
2018-11-02T01:17:03.132Z,13.30
2018-11-02T01:19:32.905Z,13.60
2018-11-02T01:22:02.971Z,16.23
2018-11-02T01:24:31.455Z,13.55
2018-11-02T01:26:59.719Z,12.40
2018-11-02T01:29:28.227Z,12.68
2018-11-02T01:31:56.794Z,13.98
2018-11-02T01:34:25.183Z,13.13
2018-11-02T01:36:53.423Z,14.85
2018-11-02T01:39:21.643Z,13.65
2018-11-02T01:41:49.871Z,17.32
2018-11-02T01:44:18.111Z,13.40
2018-11-02T01:46:46.342Z,12.90
2018-11-02T01:49:14.578Z,12.45
2018-11-02T01:51:42.807Z,11.90
2018-11-02T01:54:11.027Z,13.03
2018-11-02T01:56:40.059Z,15.03
2018-11-02T01:59:08.535Z,17.25
2018-11-02T02:01:37.097Z,12.55
2018-11-02T02:04:11.419Z,14.25
2018-11-02T02:06:39.685Z,12.88
2018-11-02T02:09:09.893Z,15.45
2018-11-02T02:11:38.140Z,13.40
2018-11-02T02:14:06.470Z,14.63
2018-11-02T02:16:34.699Z,15.50
2018-11-02T02:19:02.951Z,12.53
2018-11-02T02:21:31.247Z,13.22
2018-11-02T02:23:59.485Z,12.70
2018-11-02T02:26:27.799Z,11.53
2018-11-02T02:28:56.023Z,16.05
2018-11-02T02:31:24.304Z,13.80
2018-11-02T02:33:52.526Z,10.10
2018-11-02T02:36:20.803Z,13.90
2018-11-02T02:38:49.023Z,13.53
2018-11-02T02:41:17.282Z,15.83
2018-11-02T02:43:45.496Z,15.05
2018-11-02T02:46:13.780Z,13.95
2018-11-02T02:48:41.971Z,14.38
2018-11-02T02:51:10.197Z,13.18
2018-11-02T02:53:38.455Z,13.00
2018-11-02T02:56:06.774Z,10.68
2018-11-02T02:58:35.006Z,12.93
2018-11-02T03:01:03.226Z,13.43
2018-11-02T03:03:31.469Z,15.40
2018-11-02T03:05:59.695Z,11.53
2018-11-02T03:08:27.923Z,11.18
2018-11-02T03:10:56.408Z,11.45
2018-11-02T03:13:24.561Z,12.47
2018-11-02T03:15:52.822Z,14.40
2018-11-02T03:18:21.114Z,11.33
2018-11-02T03:20:49.348Z,15.38
2018-11-02T03:23:17.579Z,11.57
2018-11-02T03:25:45.931Z,11.65
2018-11-02T03:28:14.190Z,15.10
2018-11-02T03:30:42.420Z,13.48
2018-11-02T03:33:10.631Z,13.03
2018-11-02T03:35:38.888Z,12.65
2018-11-02T03:38:07.145Z,14.73
2018-11-02T03:40:35.369Z,11.63
2018-11-02T03:43:03.587Z,13.75
2018-11-02T03:45:31.821Z,13.25
2018-11-02T03:48:00.066Z,11.48
2018-11-02T03:50:28.316Z,11.85
2018-11-02T03:52:56.893Z,13.72
2018-11-02T03:55:25.128Z,13.68
2018-11-02T03:57:53.383Z,14.18
2018-11-02T04:00:21.604Z,11.75
2018-11-02T04:02:49.864Z,16.50
2018-11-02T04:05:18.080Z,11.48
2018-11-02T04:07:46.363Z,11.50
2018-11-02T04:10:14.596Z,12.30
2018-11-02T04:12:42.827Z,12.60
2018-11-02T04:15:11.070Z,12.30
2018-11-02T04:17:39.330Z,11.85
2018-11-02T04:20:08.566Z,10.75
2018-11-02T04:22:36.834Z,13.05
2018-11-02T04:25:05.479Z,15.98
2018-11-02T04:27:33.734Z,12.80
2018-11-02T04:30:01.982Z,12.03
2018-11-02T04:32:30.321Z,12.28
2018-11-02T04:34:58.632Z,14.30
2018-11-02T04:37:27.060Z,12.73
2018-11-02T04:39:55.310Z,13.25
2018-11-02T04:42:23.540Z,14.00
2018-11-02T04:44:51.778Z,15.68
2018-11-02T04:47:20.055Z,12.80
2018-11-02T04:49:48.335Z,19.75
2018-11-02T04:52:16.551Z,10.98
2018-11-02T04:54:44.861Z,11.65
2018-11-02T04:57:13.142Z,12.50
2018-11-02T04:59:41.348Z,15.43
2018-11-02T05:02:09.580Z,12.95
2018-11-02T05:04:37.814Z,13.55
2018-11-02T05:07:06.052Z,14.60
2018-11-02T05:09:34.322Z,12.78
2018-11-02T05:12:02.630Z,14.90
2018-11-02T05:14:30.935Z,10.53
2018-11-02T05:16:59.236Z,11.30
2018-11-02T05:19:27.466Z,14.83
2018-11-02T05:21:55.747Z,11.60
2018-11-02T05:24:24.017Z,11.88
2018-11-02T05:26:52.301Z,11.08
2018-11-02T05:29:20.619Z,16.02
2018-11-02T05:31:48.978Z,12.20
2018-11-02T05:34:17.290Z,11.85
2018-11-02T05:36:45.601Z,14.05
2018-11-02T05:39:13.943Z,13.10
2018-11-02T05:41:42.420Z,11.97
2018-11-02T05:44:10.795Z,16.02
2018-11-02T05:46:39.388Z,15.55
2018-11-02T05:49:07.858Z,12.53
2018-11-02T05:51:36.168Z,11.25
2018-11-02T05:54:04.525Z,13.03
2018-11-02T05:56:32.773Z,10.82
2018-11-02T05:59:01.065Z,12.10
2018-11-02T06:01:29.452Z,13.75
2018-11-02T06:03:57.668Z,13.15
2018-11-02T06:06:25.936Z,13.93
2018-11-02T06:08:54.250Z,12.20
2018-11-02T06:11:22.585Z,12.33
2018-11-02T06:13:51.055Z,13.85
2018-11-02T06:16:19.394Z,14.63
2018-11-02T06:18:47.791Z,13.62
2018-11-02T06:21:16.087Z,11.38
2018-11-02T06:23:45.418Z,12.43
2018-11-02T06:26:13.706Z,15.95
2018-11-02T06:28:42.153Z,13.03
2018-11-02T06:31:10.539Z,13.70
2018-11-02T06:33:38.876Z,12.90
2018-11-02T06:36:07.348Z,13.53
2018-11-02T06:38:35.720Z,13.68
2018-11-02T06:41:04.014Z,12.65
2018-11-02T06:43:32.279Z,16.02
2018-11-02T06:46:00.607Z,13.15
2018-11-02T06:48:29.038Z,11.10
2018-11-02T06:50:57.451Z,11.73
2018-11-02T06:53:25.740Z,11.28
2018-11-02T06:55:54.054Z,16.25
2018-11-02T06:58:22.353Z,13.62
2018-11-02T07:00:50.725Z,17.48
2018-11-02T07:03:19.036Z,12.68
2018-11-02T07:05:47.322Z,12.37
2018-11-02T07:08:15.668Z,14.45
2018-11-02T07:10:43.914Z,15.18
2018-11-02T07:13:12.314Z,12.23
2018-11-02T07:15:40.702Z,13.62
2018-11-02T07:18:08.986Z,13.20
2018-11-02T07:20:37.263Z,13.50
2018-11-02T07:23:06.639Z,15.60
2018-11-02T07:25:34.924Z,13.98
2018-11-02T07:28:03.201Z,12.73
2018-11-02T07:30:31.526Z,12.75
2018-11-02T07:32:59.872Z,12.47
2018-11-02T07:35:28.159Z,17.52
2018-11-02T07:37:56.419Z,15.00
2018-11-02T07:40:25.192Z,12.05
2018-11-02T07:42:53.587Z,12.70
2018-11-02T07:45:21.878Z,15.40
2018-11-02T07:47:50.599Z,12.95
2018-11-02T07:50:18.716Z,13.18
2018-11-02T07:52:47.001Z,14.87
2018-11-02T07:55:15.691Z,16.73
2018-11-02T07:57:44.032Z,11.90
2018-11-02T08:00:13.860Z,14.15
2018-11-02T08:02:46.264Z,17.12
2018-11-02T08:05:15.219Z,14.87
2018-11-02T08:07:43.616Z,14.68
2018-11-02T08:10:11.874Z,15.15
2018-11-02T08:12:40.173Z,14.60
2018-11-02T08:15:10.335Z,16.07
2018-11-02T08:17:39.703Z,14.18
2018-11-02T08:20:09.973Z,12.78
2018-11-02T08:22:38.299Z,11.75
2018-11-02T08:25:07.684Z,14.47
2018-11-02T08:27:36.013Z,13.20
2018-11-02T08:30:04.391Z,13.10
2018-11-02T08:32:32.619Z,12.20
2018-11-02T08:35:01.010Z,12.05
2018-11-02T08:37:31.324Z,13.03
2018-11-02T08:39:59.700Z,13.10
2018-11-02T08:42:27.981Z,13.40
2018-11-02T08:44:56.271Z,11.12
2018-11-02T08:47:24.631Z,11.55
2018-11-02T08:49:53.053Z,11.33
2018-11-02T08:52:21.517Z,11.50
2018-11-02T08:54:49.990Z,12.65
2018-11-02T08:57:18.315Z,11.88
2018-11-02T08:59:46.735Z,12.50
2018-11-02T09:02:15.008Z,11.35
2018-11-02T09:04:43.287Z,11.40
2018-11-02T09:07:11.666Z,12.15
2018-11-02T09:09:40.036Z,13.25
2018-11-02T09:12:08.401Z,10.88
2018-11-02T09:14:36.699Z,13.72
2018-11-02T09:17:06.915Z,12.70
2018-11-02T09:19:35.395Z,17.10
2018-11-02T09:22:03.773Z,13.30
2018-11-02T09:24:32.148Z,12.13
2018-11-02T09:27:00.651Z,11.38
2018-11-02T09:29:30.113Z,12.65
2018-11-02T09:31:58.435Z,12.03
2018-11-02T09:34:26.756Z,13.63
2018-11-02T09:36:55.085Z,15.25
2018-11-02T09:39:23.442Z,13.70
2018-11-02T09:41:51.808Z,12.82
2018-11-02T09:44:20.137Z,15.27
2018-11-02T09:46:48.528Z,11.90
2018-11-02T09:49:16.898Z,17.98
2018-11-02T09:51:45.481Z,11.88
2018-11-02T09:54:13.551Z,12.35
2018-11-02T09:56:41.900Z,13.48
2018-11-02T09:59:10.281Z,13.38
2018-11-02T10:01:38.644Z,14.28
2018-11-02T10:04:07.021Z,11.65
2018-11-02T10:06:35.812Z,12.15
2018-11-02T10:09:06.070Z,12.82
2018-11-02T10:11:34.417Z,13.40
2018-11-02T10:14:02.769Z,11.97
2018-11-02T10:16:31.232Z,11.70
2018-11-02T10:18:59.546Z,12.30
2018-11-02T10:21:27.840Z,10.82
2018-11-02T10:23:56.270Z,12.15
2018-11-02T10:26:24.579Z,11.73
2018-11-02T10:28:52.964Z,12.50
2018-11-02T10:31:21.415Z,13.25
2018-11-02T10:33:49.772Z,14.93
2018-11-02T10:36:18.088Z,15.17
2018-11-02T10:38:46.401Z,12.57
2018-11-02T10:41:19.816Z,13.03
2018-11-02T10:43:49.002Z,12.97
2018-11-02T10:46:17.387Z,12.40
2018-11-02T10:48:46.018Z,11.37
2018-11-02T10:51:14.307Z,11.83
2018-11-02T10:53:42.558Z,12.10
2018-11-02T10:56:10.859Z,11.33
2018-11-02T10:58:39.121Z,14.57
2018-11-02T11:01:12.719Z,12.23
2018-11-02T11:03:40.972Z,12.23
2018-11-02T11:06:09.363Z,11.60
2018-11-02T11:08:37.664Z,12.83
2018-11-02T11:11:06.017Z,11.57
2018-11-02T11:13:34.687Z,13.13
2018-11-02T11:16:02.624Z,12.17
2018-11-02T11:18:30.915Z,12.20
2018-11-02T11:20:59.159Z,10.90
2018-11-02T11:23:28.231Z,11.40
2018-11-02T11:25:56.582Z,10.80
2018-11-02T11:28:24.839Z,12.53
2018-11-02T11:30:53.096Z,12.53
2018-11-02T11:33:21.340Z,11.33
2018-11-02T11:35:50.455Z,15.17
2018-11-02T11:38:18.707Z,12.17
2018-11-02T11:40:46.959Z,14.03
2018-11-02T11:43:15.206Z,14.10
2018-11-02T11:45:43.451Z,14.40
2018-11-02T11:48:11.662Z,14.97
2018-11-02T11:50:39.935Z,14.27
2018-11-02T11:53:08.259Z,12.93
2018-11-02T11:55:36.492Z,13.57
2018-11-02T11:58:05.079Z,12.40
2018-11-02T12:00:33.306Z,14.43
2018-11-02T12:03:01.603Z,14.00
2018-11-02T12:05:29.993Z,14.47
2018-11-02T12:07:58.232Z,12.87
2018-11-02T12:10:26.500Z,15.23
2018-11-02T12:12:54.700Z,12.60
2018-11-02T12:15:23.617Z,12.40
2018-11-02T12:17:51.929Z,12.67
2018-11-02T12:20:22.595Z,14.80
2018-11-02T12:22:52.200Z,18.53
2018-11-02T12:25:20.439Z,14.63
2018-11-02T12:27:48.709Z,14.80
2018-11-02T12:30:18.075Z,15.20
2018-11-02T12:32:46.363Z,16.37
2018-11-02T12:35:15.768Z,12.40
2018-11-02T12:37:44.016Z,14.23
2018-11-02T12:40:13.526Z,14.67
2018-11-02T12:42:42.325Z,12.83
2018-11-02T12:45:12.148Z,13.57
2018-11-02T12:47:41.110Z,16.13
2018-11-02T12:50:12.157Z,15.10
2018-11-02T12:52:40.555Z,14.90
2018-11-02T12:55:09.750Z,11.93
2018-11-02T12:57:38.153Z,15.47
2018-11-02T13:00:10.103Z,16.63
2018-11-02T13:02:38.343Z,14.75
2018-11-02T13:05:07.055Z,15.00
2018-11-02T13:07:35.391Z,15.83
2018-11-02T13:10:03.652Z,15.40
2018-11-02T13:12:31.986Z,15.58
2018-11-02T13:15:00.257Z,13.47
2018-11-02T13:17:28.566Z,14.13
2018-11-02T13:19:56.787Z,13.27
2018-11-02T13:22:25.078Z,14.10
2018-11-02T13:24:53.434Z,15.83
2018-11-02T13:27:21.709Z,14.23
2018-11-02T13:29:49.920Z,14.43
2018-11-02T13:32:18.190Z,18.27
2018-11-02T13:34:46.435Z,15.93
2018-11-02T13:37:14.726Z,17.30
2018-11-02T13:39:42.890Z,16.83
2018-11-02T13:42:11.143Z,17.90
2018-11-02T13:44:39.419Z,14.80
2018-11-02T13:47:07.685Z,15.97
2018-11-02T13:49:35.894Z,17.60
2018-11-02T13:52:04.159Z,14.30
2018-11-02T13:54:32.412Z,15.60
2018-11-02T13:57:00.729Z,14.00
2018-11-02T13:59:29.125Z,15.83
2018-11-02T14:01:57.367Z,16.20
2018-11-02T14:04:25.617Z,18.83
2018-11-02T14:06:54.001Z,16.50
2018-11-02T14:09:22.353Z,17.00
2018-11-02T14:11:50.755Z,18.33
2018-11-02T14:14:19.105Z,17.63
2018-11-02T14:16:47.395Z,17.50
2018-11-02T14:19:15.657Z,18.20
2018-11-02T14:21:44.000Z,16.37
2018-11-02T14:24:12.261Z,16.70
2018-11-02T14:26:40.595Z,16.80
2018-11-02T14:29:08.875Z,18.70
2018-11-02T14:31:37.181Z,17.13
2018-11-02T14:34:05.527Z,18.87
2018-11-02T14:36:33.796Z,18.00
2018-11-02T14:39:02.099Z,17.90
2018-11-02T14:41:30.500Z,17.87
2018-11-02T14:43:58.657Z,16.93
2018-11-02T14:46:26.931Z,18.00
2018-11-02T14:48:55.211Z,19.17
2018-11-02T14:51:23.598Z,17.87
2018-11-02T14:53:51.950Z,17.00
2018-11-02T14:56:20.227Z,17.83
2018-11-02T14:58:49.222Z,16.73
2018-11-02T15:01:17.478Z,16.17
2018-11-02T15:03:45.746Z,17.87
2018-11-02T15:06:14.002Z,17.03
2018-11-02T15:08:42.399Z,18.40
2018-11-02T15:11:10.688Z,20.10
2018-11-02T15:13:38.911Z,18.97
2018-11-02T15:16:07.191Z,19.37
2018-11-02T15:18:35.506Z,19.00
2018-11-02T15:21:03.815Z,18.97
2018-11-02T15:23:32.139Z,17.93
2018-11-02T15:26:00.379Z,20.00
2018-11-02T15:28:28.704Z,19.60
2018-11-02T15:30:56.994Z,18.27
2018-11-02T15:33:25.275Z,23.93
2018-11-02T15:35:53.575Z,19.37
2018-11-02T15:38:21.841Z,20.30
2018-11-02T15:40:50.120Z,19.62
2018-11-02T15:43:18.389Z,19.30
2018-11-02T15:45:46.641Z,21.03
2018-11-02T15:48:14.892Z,20.37
2018-11-02T15:50:43.228Z,18.43
2018-11-02T15:53:11.533Z,19.65
2018-11-02T15:55:39.744Z,19.70
2018-11-02T15:58:08.336Z,19.87
2018-11-02T16:00:36.726Z,20.60
2018-11-02T16:03:04.900Z,21.23
2018-11-02T16:05:33.163Z,23.83
2018-11-02T16:08:01.698Z,22.00
2018-11-02T16:10:29.984Z,24.20
2018-11-02T16:12:58.483Z,20.97
2018-11-02T16:15:26.795Z,19.73
2018-11-02T16:17:55.044Z,25.65
2018-11-02T16:20:23.341Z,19.23
2018-11-02T16:22:51.604Z,21.70
2018-11-02T16:25:19.878Z,18.73
2018-11-02T16:27:48.222Z,20.20
2018-11-02T16:30:16.515Z,16.87
2018-11-02T16:32:45.131Z,18.37
2018-11-02T16:35:13.434Z,18.52
2018-11-02T16:37:41.706Z,18.30
2018-11-02T16:40:12.462Z,16.30
2018-11-02T16:42:40.874Z,17.50
2018-11-02T16:45:10.938Z,19.07
2018-11-02T16:47:39.505Z,17.93
2018-11-02T16:50:09.006Z,19.70
2018-11-02T16:52:37.242Z,29.82
2018-11-02T16:55:06.369Z,42.57
2018-11-02T16:57:34.721Z,26.20
2018-11-02T17:00:02.978Z,21.05
2018-11-02T17:02:31.245Z,20.55
2018-11-02T17:04:59.511Z,23.30
2018-11-02T17:07:27.722Z,20.48
2018-11-02T17:09:55.979Z,19.98
2018-11-02T17:12:30.543Z,22.20
2018-11-02T17:14:58.834Z,27.20
2018-11-02T17:17:27.180Z,22.35
2018-11-02T17:19:55.539Z,19.67
2018-11-02T17:22:23.889Z,22.87
2018-11-02T17:24:52.271Z,24.67
2018-11-02T17:27:20.570Z,20.27
2018-11-02T17:29:48.941Z,20.48
2018-11-02T17:32:17.487Z,23.18
2018-11-02T17:34:45.902Z,27.75
2018-11-02T17:37:14.181Z,31.27
2018-11-02T17:39:42.515Z,27.42
2018-11-02T17:42:10.791Z,24.92
2018-11-02T17:44:39.087Z,24.35
2018-11-02T17:47:07.505Z,26.23
2018-11-02T17:49:35.844Z,28.15
2018-11-02T17:52:04.467Z,28.92
2018-11-02T17:54:32.788Z,31.42
2018-11-02T17:57:01.124Z,25.15
2018-11-02T17:59:29.442Z,26.95
2018-11-02T18:01:57.759Z,25.80
2018-11-02T18:04:26.058Z,28.50
2018-11-02T18:06:54.795Z,24.43
2018-11-02T18:09:23.105Z,26.73
2018-11-02T18:11:51.918Z,26.42
2018-11-02T18:14:20.219Z,26.60
2018-11-02T18:16:48.657Z,24.90
2018-11-02T18:19:17.177Z,26.17
2018-11-02T18:21:45.457Z,29.37
2018-11-02T18:24:14.094Z,28.10
2018-11-02T18:26:42.443Z,29.50
2018-11-02T18:29:10.850Z,26.73
2018-11-02T18:31:39.138Z,26.40
2018-11-02T18:34:07.402Z,28.87
2018-11-02T18:36:35.809Z,29.20
2018-11-02T18:39:07.000Z,29.80
2018-11-02T18:41:35.298Z,27.87
2018-11-02T18:44:03.641Z,29.30
2018-11-02T18:46:32.004Z,32.53
2018-11-02T18:49:00.438Z,31.00
2018-11-02T18:51:28.756Z,29.23
2018-11-02T18:53:57.007Z,30.00
2018-11-02T18:56:25.271Z,29.63
2018-11-02T18:58:53.626Z,30.80
2018-11-02T19:01:21.915Z,31.70
2018-11-02T19:03:50.208Z,31.82
2018-11-02T19:06:18.644Z,30.80
2018-11-02T19:08:46.800Z,28.60
2018-11-02T19:11:15.119Z,32.98
2018-11-02T19:13:43.424Z,33.20
2018-11-02T19:16:11.933Z,31.93
2018-11-02T19:18:40.459Z,32.10
2018-11-02T19:21:08.772Z,31.25
2018-11-02T19:23:37.171Z,29.55
2018-11-02T19:26:05.494Z,29.15
2018-11-02T19:28:33.815Z,31.00
2018-11-02T19:31:02.259Z,38.40
2018-11-02T19:33:30.624Z,31.17
2018-11-02T19:35:58.905Z,32.53
2018-11-02T19:38:27.335Z,34.35
2018-11-02T19:40:55.639Z,38.08
2018-11-02T19:43:23.939Z,32.97
2018-11-02T19:45:52.268Z,35.80
2018-11-02T19:48:20.542Z,30.52
2018-11-02T19:50:49.109Z,31.15
2018-11-02T19:53:17.716Z,32.75
2018-11-02T19:55:46.120Z,30.72
2018-11-02T19:58:14.387Z,29.37
2018-11-02T20:00:42.691Z,31.07
2018-11-02T20:03:11.087Z,31.57
2018-11-02T20:05:39.405Z,28.30
2018-11-02T20:08:07.730Z,29.77
2018-11-02T20:10:36.031Z,27.62
2018-11-02T20:13:04.619Z,23.57
2018-11-02T20:15:32.952Z,20.02
2018-11-02T20:18:01.283Z,20.88
2018-11-02T20:20:29.641Z,19.48
2018-11-02T20:22:57.924Z,17.87
2018-11-02T20:25:26.222Z,20.55
2018-11-02T20:27:54.599Z,16.97
2018-11-02T20:30:22.941Z,17.20
2018-11-02T20:32:51.257Z,18.90
2018-11-02T20:35:19.530Z,15.00
2018-11-02T20:37:47.864Z,19.90
2018-11-02T20:40:17.698Z,15.85
2018-11-02T20:42:46.347Z,17.87
2018-11-02T20:45:15.398Z,15.78
2018-11-02T20:47:51.746Z,14.45
2018-11-02T20:50:20.039Z,16.48
2018-11-02T20:52:48.549Z,14.20
2018-11-02T20:55:17.187Z,14.28
2018-11-02T20:57:45.562Z,15.23
2018-11-02T21:00:16.296Z,16.70
2018-11-02T21:02:45.074Z,15.23
2018-11-02T21:05:14.503Z,13.27
2018-11-02T21:07:43.299Z,14.70
2018-11-02T21:10:13.798Z,13.95
2018-11-02T21:12:42.152Z,12.90
2018-11-02T21:15:13.908Z,12.25
2018-11-02T21:17:42.312Z,12.25
2018-11-02T21:20:13.936Z,13.03
2018-11-02T21:22:43.804Z,12.85
2018-11-02T21:25:13.040Z,12.28
2018-11-02T21:27:42.227Z,12.82
2018-11-02T21:30:14.412Z,14.75
2018-11-02T21:32:43.246Z,13.22
2018-11-02T21:35:11.761Z,12.90
2018-11-02T21:37:40.569Z,11.00
2018-11-02T21:40:12.596Z,12.47
2018-11-02T21:42:41.400Z,13.85
2018-11-02T21:45:10.415Z,11.40
2018-11-02T21:47:38.782Z,12.05
2018-11-02T21:50:07.898Z,11.25
2018-11-02T21:52:36.207Z,10.70
2018-11-02T21:55:04.871Z,10.37
2018-11-02T21:57:33.277Z,11.03
2018-11-02T22:00:01.530Z,16.60
2018-11-02T22:02:29.862Z,13.05
2018-11-02T22:04:58.154Z,13.72
2018-11-02T22:07:26.465Z,10.90
2018-11-02T22:09:54.793Z,12.10
2018-11-02T22:12:23.063Z,10.60
2018-11-02T22:14:51.415Z,9.87
2018-11-02T22:17:19.676Z,10.90
2018-11-02T22:19:48.185Z,12.80
2018-11-02T22:22:16.561Z,11.60
2018-11-02T22:24:44.871Z,10.43
2018-11-02T22:27:13.293Z,12.17
2018-11-02T22:29:41.726Z,11.63
2018-11-02T22:32:10.012Z,14.10
2018-11-02T22:34:38.371Z,10.67
2018-11-02T22:37:06.758Z,12.73
2018-11-02T22:39:35.083Z,11.45
2018-11-02T22:42:03.371Z,10.57
2018-11-02T22:44:31.624Z,10.47
2018-11-02T22:46:59.923Z,9.83
2018-11-02T22:49:28.215Z,11.33
2018-11-02T22:51:56.731Z,11.50
2018-11-02T22:54:25.034Z,9.33
2018-11-02T22:56:53.335Z,9.05
2018-11-02T22:59:21.594Z,9.75
2018-11-02T23:01:49.909Z,11.35
2018-11-02T23:04:18.342Z,9.77
2018-11-02T23:06:46.698Z,9.87
2018-11-02T23:09:14.970Z,11.47
2018-11-02T23:11:43.247Z,10.85
2018-11-02T23:14:11.499Z,9.83
2018-11-02T23:16:39.810Z,10.70
2018-11-02T23:19:08.063Z,11.30
2018-11-02T23:21:36.378Z,9.78
2018-11-02T23:24:05.219Z,11.68
2018-11-02T23:26:33.499Z,12.43
2018-11-02T23:29:01.750Z,10.55
2018-11-02T23:31:30.028Z,9.50
2018-11-02T23:33:58.308Z,10.40
2018-11-02T23:36:26.527Z,10.32
2018-11-02T23:38:54.803Z,9.40
2018-11-02T23:41:23.075Z,8.70
2018-11-02T23:43:51.339Z,9.58
2018-11-02T23:46:19.587Z,9.80
2018-11-02T23:48:47.823Z,10.20
2018-11-02T23:51:16.103Z,9.90
2018-11-02T23:53:44.376Z,10.35
2018-11-02T23:56:12.624Z,9.95
2018-11-02T23:58:40.906Z,11.95
